Time;durP1;ratioP1;P1;durP2;ratioP2;P2;SDS_P1;SDS_P2;PMS_P1;PMS_P2;Temp;Humidity;BMP_temperature;BMP_pressure;BME280_temperature;BME280_humidity;BME280_pressure;Samples;Min_cycle;Max_cycle;Signal;HPM_P1;HPM_P2
2021/04/15 00:01:33;;;;;;;9.98;3.97;;;;;;;;;;5075446;28;20220;-64
2021/04/15 00:04:00;;;;;;;5.00;4.40;;;;;;;;;;5075263;28;20586;-64
2021/04/15 00:06:28;;;;;;;4.47;3.80;;;;;;;;;;5075787;28;20198;-64
2021/04/15 00:08:56;;;;;;;6.85;4.70;;;;;;;;;;5075219;28;20300;-64
2021/04/15 00:11:25;;;;;;;10.38;4.72;;;;;;;;;;5075037;28;20202;-64
2021/04/15 00:13:53;;;;;;;9.75;5.05;;;;;;;;;;5075232;28;20297;-63
2021/04/15 00:16:20;;;;;;;6.95;4.40;;;;;;;;;;5075549;28;20210;-64
2021/04/15 00:18:47;;;;;;;7.03;4.93;;;;;;;;;;5074896;28;20195;-64
2021/04/15 00:21:15;;;;;;;8.80;4.95;;;;;;;;;;5074649;28;20198;-65
2021/04/15 00:23:41;;;;;;;8.15;4.50;;;;;;;;;;5075347;28;20219;-64
2021/04/15 00:26:10;;;;;;;9.88;5.07;;;;;;;;;;5074981;28;20194;-64
2021/04/15 00:28:37;;;;;;;6.00;4.50;;;;;;;;;;5074846;28;20197;-64
2021/04/15 00:31:04;;;;;;;15.02;4.80;;;;;;;;;;5074785;28;20598;-64
2021/04/15 00:33:31;;;;;;;6.93;4.35;;;;;;;;;;5074355;28;20197;-64
2021/04/15 00:35:58;;;;;;;7.53;4.55;;;;;;;;;;5075112;28;20205;-65
2021/04/15 00:38:26;;;;;;;7.85;4.57;;;;;;;;;;5075182;28;20229;-65
2021/04/15 00:40:54;;;;;;;5.13;4.20;;;;;;;;;;5075303;28;20198;-65
2021/04/15 00:43:23;;;;;;;8.82;5.57;;;;;;;;;;5073991;28;20683;-64
2021/04/15 00:45:50;;;;;;;6.63;4.70;;;;;;;;;;5074997;28;20194;-65
2021/04/15 00:48:23;;;;;;;6.63;4.43;;;;;;;;;;5074018;28;20229;-65
2021/04/15 00:50:52;;;;;;;6.93;4.50;;;;;;;;;;5074213;28;20278;-64
2021/04/15 00:53:22;;;;;;;7.25;5.07;;;;;;;;;;5074387;28;20252;-64
2021/04/15 00:55:49;;;;;;;8.43;6.68;;;;;;;;;;5074292;28;20581;-65
2021/04/15 00:58:16;;;;;;;11.55;7.57;;;;;;;;;;5074242;28;20194;-64
2021/04/15 01:00:44;;;;;;;7.40;5.50;;;;;;;;;;5074210;28;20194;-64
2021/04/15 01:03:11;;;;;;;6.55;4.88;;;;;;;;;;5074430;28;20653;-64
2021/04/15 01:05:39;;;;;;;5.70;5.10;;;;;;;;;;5073810;28;20293;-64
2021/04/15 01:08:06;;;;;;;6.93;6.05;;;;;;;;;;5073751;28;20201;-64
2021/04/15 01:10:38;;;;;;;14.43;6.97;;;;;;;;;;5074101;28;20198;-64
2021/04/15 01:13:14;;;;;;;6.43;5.60;;;;;;;;;;5073851;28;20671;-64
2021/04/15 01:15:47;;;;;;;6.68;6.07;;;;;;;;;;5074129;28;20186;-64
2021/04/15 01:18:18;;;;;;;6.50;5.72;;;;;;;;;;5074301;28;20190;-64
2021/04/15 01:21:03;;;;;;;8.02;5.72;;;;;;;;;;5074231;28;20255;-64
2021/04/15 01:23:32;;;;;;;9.77;5.70;;;;;;;;;;5073959;28;20206;-64
2021/04/15 01:26:10;;;;;;;7.53;6.80;;;;;;;;;;5073385;28;20194;-63
2021/04/15 01:28:45;;;;;;;7.72;5.63;;;;;;;;;;5073871;28;20182;-63
2021/04/15 01:31:14;;;;;;;6.97;5.47;;;;;;;;;;5073484;28;20177;-64
2021/04/15 01:33:42;;;;;;;8.35;5.70;;;;;;;;;;5073669;28;20198;-64
2021/04/15 01:36:12;;;;;;;8.75;6.78;;;;;;;;;;5073347;28;20198;-65
2021/04/15 01:38:41;;;;;;;10.70;6.32;;;;;;;;;;5073589;28;20553;-65
2021/04/15 01:41:09;;;;;;;9.65;6.97;;;;;;;;;;5073407;28;20194;-65
2021/04/15 01:43:38;;;;;;;9.30;6.30;;;;;;;;;;5073258;28;20247;-65
2021/04/15 01:46:07;;;;;;;6.60;5.85;;;;;;;;;;5073165;28;20227;-64
2021/04/15 01:48:36;;;;;;;10.18;5.55;;;;;;;;;;5073560;28;20312;-64
2021/04/15 01:51:07;;;;;;;7.93;6.65;;;;;;;;;;5073427;28;20192;-65
2021/04/15 01:53:36;;;;;;;10.48;6.15;;;;;;;;;;5073848;28;20549;-64
2021/04/15 01:56:06;;;;;;;6.80;6.03;;;;;;;;;;5073335;28;20198;-65
2021/04/15 01:58:36;;;;;;;10.23;6.13;;;;;;;;;;5073580;28;20326;-66
2021/04/15 02:01:07;;;;;;;9.73;6.47;;;;;;;;;;5073250;28;20197;-65
2021/04/15 02:03:35;;;;;;;9.70;5.80;;;;;;;;;;5073351;28;20206;-65
2021/04/15 02:06:04;;;;;;;10.82;6.13;;;;;;;;;;5072970;28;20226;-64
2021/04/15 02:08:32;;;;;;;6.95;6.25;;;;;;;;;;5073423;28;20566;-64
2021/04/15 02:11:01;;;;;;;8.68;7.72;;;;;;;;;;5073208;28;20198;-64
2021/04/15 02:13:28;;;;;;;7.65;6.60;;;;;;;;;;5073410;28;20251;-64
2021/04/15 02:15:58;;;;;;;8.32;7.35;;;;;;;;;;5072882;28;20226;-64
2021/04/15 02:18:26;;;;;;;9.38;6.63;;;;;;;;;;5072883;28;20662;-65
2021/04/15 02:20:56;;;;;;;8.55;6.30;;;;;;;;;;5073456;28;20290;-64
2021/04/15 02:23:25;;;;;;;12.50;6.95;;;;;;;;;;5072960;28;20581;-65
2021/04/15 02:25:55;;;;;;;7.60;6.88;;;;;;;;;;5073682;28;20194;-65
2021/04/15 02:28:24;;;;;;;15.00;7.65;;;;;;;;;;5074839;28;20205;-65
2021/04/15 02:30:54;;;;;;;11.93;6.90;;;;;;;;;;5074907;28;20200;-64
2021/04/15 02:33:23;;;;;;;7.55;6.85;;;;;;;;;;5073881;28;20277;-64
2021/04/15 02:35:51;;;;;;;12.15;7.47;;;;;;;;;;5073220;28;20737;-64
2021/04/15 02:38:23;;;;;;;9.88;7.05;;;;;;;;;;5072939;28;20284;-64
2021/04/15 02:40:52;;;;;;;9.50;6.90;;;;;;;;;;5074340;28;20179;-64
2021/04/15 02:43:24;;;;;;;8.10;7.40;;;;;;;;;;5076532;28;20218;-64
2021/04/15 02:45:54;;;;;;;7.50;6.72;;;;;;;;;;5077329;28;20193;-65
2021/04/15 02:48:23;;;;;;;9.18;6.90;;;;;;;;;;5076786;28;20228;-64
2021/04/15 02:50:53;;;;;;;7.65;6.85;;;;;;;;;;5076711;28;20202;-64
2021/04/15 02:53:22;;;;;;;9.25;7.25;;;;;;;;;;5076946;28;20186;-64
2021/04/15 02:55:53;;;;;;;9.57;6.82;;;;;;;;;;5076255;28;20648;-64
2021/04/15 02:58:25;;;;;;;11.10;7.18;;;;;;;;;;5076256;28;20190;-64
2021/04/15 03:00:53;;;;;;;10.45;7.72;;;;;;;;;;5076490;28;20194;-64
2021/04/15 03:03:21;;;;;;;8.57;7.57;;;;;;;;;;5076086;28;20305;-64
2021/04/15 03:05:50;;;;;;;11.73;7.38;;;;;;;;;;5076679;28;20202;-64
2021/04/15 03:08:19;;;;;;;8.98;7.00;;;;;;;;;;5076680;28;20194;-64
2021/04/15 03:10:49;;;;;;;9.85;6.75;;;;;;;;;;5076435;28;20230;-65
2021/04/15 03:13:16;;;;;;;7.53;6.75;;;;;;;;;;5077116;28;20546;-65
2021/04/15 03:15:45;;;;;;;8.65;7.07;;;;;;;;;;5076307;28;20193;-64
2021/04/15 03:18:14;;;;;;;13.65;7.30;;;;;;;;;;5076295;28;20243;-64
2021/04/15 03:20:43;;;;;;;8.85;6.60;;;;;;;;;;5076283;28;20550;-64
2021/04/15 03:23:12;;;;;;;10.27;7.45;;;;;;;;;;5075801;28;20706;-64
2021/04/15 03:25:40;;;;;;;10.85;7.45;;;;;;;;;;5075831;28;20289;-64
2021/04/15 03:28:12;;;;;;;8.73;7.00;;;;;;;;;;5076625;28;20285;-64
2021/04/15 03:30:45;;;;;;;9.70;6.70;;;;;;;;;;5076482;28;20210;-64
2021/04/15 03:33:14;;;;;;;11.90;7.35;;;;;;;;;;5075888;28;20194;-63
2021/04/15 03:35:42;;;;;;;11.43;6.90;;;;;;;;;;5075616;28;20289;-64
2021/04/15 03:38:11;;;;;;;7.72;6.93;;;;;;;;;;5075939;28;20233;-64
2021/04/15 03:40:39;;;;;;;7.20;6.40;;;;;;;;;;5076442;28;20198;-65
2021/04/15 03:43:09;;;;;;;9.77;6.43;;;;;;;;;;5076128;28;20586;-64
2021/04/15 03:45:40;;;;;;;7.38;6.63;;;;;;;;;;5075819;28;20194;-65
2021/04/15 03:48:08;;;;;;;9.80;6.70;;;;;;;;;;5076023;28;20725;-64
2021/04/15 03:50:40;;;;;;;9.00;6.78;;;;;;;;;;5075378;28;20654;-65
2021/04/15 03:53:09;;;;;;;11.00;6.97;;;;;;;;;;5074154;28;20190;-65
2021/04/15 03:55:38;;;;;;;13.27;7.28;;;;;;;;;;5075557;28;20241;-65
2021/04/15 03:58:06;;;;;;;10.57;7.25;;;;;;;;;;5075244;28;20281;-65
2021/04/15 04:00:35;;;;;;;11.93;7.55;;;;;;;;;;5075907;28;20280;-65
2021/04/15 04:03:05;;;;;;;12.75;8.45;;;;;;;;;;5075451;28;20246;-64
2021/04/15 04:05:35;;;;;;;15.30;10.05;;;;;;;;;;5075102;28;20190;-65
2021/04/15 04:08:03;;;;;;;9.73;8.80;;;;;;;;;;5075398;28;20232;-65
2021/04/15 04:10:33;;;;;;;12.57;10.30;;;;;;;;;;5075315;28;20194;-64
2021/04/15 04:13:07;;;;;;;12.40;9.82;;;;;;;;;;5075994;28;20213;-65
2021/04/15 04:15:35;;;;;;;11.48;10.38;;;;;;;;;;5075299;28;20190;-64
2021/04/15 04:18:09;;;;;;;14.98;8.85;;;;;;;;;;5075088;28;20202;-65
2021/04/15 04:20:38;;;;;;;12.38;10.65;;;;;;;;;;5074886;28;20182;-64
2021/04/15 04:23:09;;;;;;;15.00;10.57;;;;;;;;;;5072104;28;20302;-64
2021/04/15 04:25:38;;;;;;;13.65;11.50;;;;;;;;;;5062520;28;20245;-65
2021/04/15 04:28:08;;;;;;;13.18;10.07;;;;;;;;;;5054130;28;20195;-64
2021/04/15 04:30:38;;;;;;;11.73;10.52;;;;;;;;;;5054277;28;20270;-64
2021/04/15 04:33:06;;;;;;;11.95;10.68;;;;;;;;;;5053948;28;20203;-65
2021/04/15 04:35:35;;;;;;;16.02;12.05;;;;;;;;;;5054062;28;20398;-64
2021/04/15 04:38:03;;;;;;;17.35;11.80;;;;;;;;;;5054159;28;20195;-64
2021/04/15 04:40:33;;;;;;;15.55;11.38;;;;;;;;;;5054261;28;20223;-64
2021/04/15 04:43:01;;;;;;;17.17;11.52;;;;;;;;;;5053649;28;20223;-65
2021/04/15 04:45:29;;;;;;;15.85;12.85;;;;;;;;;;5054230;28;20555;-64
2021/04/15 04:47:59;;;;;;;18.95;13.43;;;;;;;;;;5053937;28;20209;-64
2021/04/15 04:50:32;;;;;;;14.00;11.32;;;;;;;;;;5053968;28;20523;-64
2021/04/15 04:53:01;;;;;;;13.75;10.43;;;;;;;;;;5057969;28;20189;-64
2021/04/15 04:55:33;;;;;;;12.95;11.15;;;;;;;;;;5074152;28;20289;-64
2021/04/15 04:58:00;;;;;;;12.43;11.13;;;;;;;;;;5074342;28;20638;-64
2021/04/15 05:00:28;;;;;;;13.20;11.10;;;;;;;;;;5074312;28;20237;-64
2021/04/15 05:02:55;;;;;;;16.60;11.73;;;;;;;;;;5074316;28;20198;-64
2021/04/15 05:05:23;;;;;;;15.00;11.30;;;;;;;;;;5073933;28;20232;-64
2021/04/15 05:07:55;;;;;;;16.02;11.40;;;;;;;;;;5074297;28;20228;-65
2021/04/15 05:10:25;;;;;;;13.43;10.88;;;;;;;;;;5073779;28;20201;-64
2021/04/15 05:13:04;;;;;;;16.00;11.75;;;;;;;;;;5073421;28;20193;-64
2021/04/15 05:15:31;;;;;;;14.48;11.00;;;;;;;;;;5073601;28;20204;-65
2021/04/15 05:17:58;;;;;;;16.98;11.13;;;;;;;;;;5073727;28;20194;-64
2021/04/15 05:20:26;;;;;;;11.27;10.13;;;;;;;;;;5073548;28;20190;-65
2021/04/15 05:22:56;;;;;;;12.50;11.20;;;;;;;;;;5073463;28;20198;-64
2021/04/15 05:25:26;;;;;;;15.13;10.75;;;;;;;;;;5073482;28;20285;-64
2021/04/15 05:27:53;;;;;;;12.75;9.73;;;;;;;;;;5073690;28;20186;-64
2021/04/15 05:30:26;;;;;;;14.75;10.38;;;;;;;;;;5066325;28;20197;-65
2021/04/15 05:32:53;;;;;;;18.33;12.63;;;;;;;;;;5053988;28;20278;-64
2021/04/15 05:35:26;;;;;;;14.82;9.52;;;;;;;;;;5067548;28;20243;-65
2021/04/15 05:37:53;;;;;;;14.27;10.85;;;;;;;;;;5073991;28;20182;-64
2021/04/15 05:40:20;;;;;;;11.65;10.20;;;;;;;;;;5073246;28;20572;-64
2021/04/15 05:42:50;;;;;;;16.63;11.00;;;;;;;;;;5073515;28;20235;-64
2021/04/15 05:45:21;;;;;;;14.40;11.25;;;;;;;;;;5074146;28;20204;-70
2021/04/15 05:47:53;;;;;;;18.20;9.48;;;;;;;;;;5073901;28;20654;-61
2021/04/15 05:50:22;;;;;;;16.63;11.05;;;;;;;;;;5073726;28;20545;-62
2021/04/15 05:52:55;;;;;;;12.85;10.73;;;;;;;;;;5073092;28;20194;-62
2021/04/15 05:55:25;;;;;;;14.02;10.75;;;;;;;;;;5073877;28;20201;-62
2021/04/15 05:57:56;;;;;;;11.93;10.25;;;;;;;;;;5073760;28;20543;-62
2021/04/15 06:00:26;;;;;;;14.32;10.15;;;;;;;;;;5073293;28;20273;-61
2021/04/15 06:02:54;;;;;;;17.10;10.82;;;;;;;;;;5073434;28;20197;-62
2021/04/15 06:05:23;;;;;;;12.25;9.18;;;;;;;;;;5073524;28;20200;-61
2021/04/15 06:07:54;;;;;;;9.23;8.32;;;;;;;;;;5073469;28;20201;-62
2021/04/15 06:10:22;;;;;;;13.73;9.48;;;;;;;;;;5073690;28;20656;-62
2021/04/15 06:12:51;;;;;;;11.75;9.02;;;;;;;;;;5073600;28;20286;-62
2021/04/15 06:15:22;;;;;;;20.23;9.55;;;;;;;;;;5072847;28;20564;-63
2021/04/15 06:17:51;;;;;;;10.05;9.05;;;;;;;;;;5073083;28;20179;-63
2021/04/15 06:20:22;;;;;;;9.60;8.60;;;;;;;;;;5073235;28;20193;-62
2021/04/15 06:22:49;;;;;;;11.95;8.10;;;;;;;;;;5073631;28;20196;-62
2021/04/15 06:25:20;;;;;;;9.77;7.43;;;;;;;;;;5073471;28;20194;-62
2021/04/15 06:27:48;;;;;;;11.05;7.90;;;;;;;;;;5073104;28;20343;-63
2021/04/15 06:30:17;;;;;;;8.57;7.53;;;;;;;;;;5073243;28;20194;-62
2021/04/15 06:32:48;;;;;;;10.80;6.50;;;;;;;;;;5073671;28;20552;-62
2021/04/15 06:35:19;;;;;;;8.38;6.65;;;;;;;;;;5072604;28;20190;-62
2021/04/15 06:37:48;;;;;;;9.30;6.43;;;;;;;;;;5072775;28;20221;-62
2021/04/15 06:40:29;;;;;;;15.38;7.20;;;;;;;;;;5073079;28;20195;-63
2021/04/15 06:43:11;;;;;;;12.00;7.40;;;;;;;;;;5071172;28;20199;-62
2021/04/15 06:45:44;;;;;;;9.57;6.30;;;;;;;;;;5071243;28;20198;-62
2021/04/15 06:48:20;;;;;;;10.55;6.47;;;;;;;;;;5073008;28;20262;-62
2021/04/15 06:50:54;;;;;;;11.43;6.45;;;;;;;;;;5072863;28;20233;-62
2021/04/15 06:53:31;;;;;;;6.13;5.20;;;;;;;;;;5073628;28;20289;-62
2021/04/15 06:56:07;;;;;;;14.63;7.50;;;;;;;;;;5073111;28;20190;-62
2021/04/15 06:58:44;;;;;;;11.90;5.32;;;;;;;;;;5073273;28;20186;-62
2021/04/15 07:01:16;;;;;;;10.48;5.20;;;;;;;;;;5073065;28;20273;-62
2021/04/15 07:04:02;;;;;;;13.30;5.07;;;;;;;;;;5072679;28;20207;-62
2021/04/15 07:06:46;;;;;;;8.15;4.68;;;;;;;;;;5073134;28;20636;-62
2021/04/15 07:09:33;;;;;;;11.32;5.03;;;;;;;;;;5072938;28;20580;-62
2021/04/15 07:12:07;;;;;;;5.40;4.03;;;;;;;;;;5072830;28;20680;-62
2021/04/15 07:14:39;;;;;;;8.13;6.18;;;;;;;;;;5072881;28;20195;-63
2021/04/15 07:17:30;;;;;;;7.00;4.50;;;;;;;;;;5072498;28;20270;-62
2021/04/15 07:20:15;;;;;;;10.15;4.90;;;;;;;;;;5073021;28;20269;-62
2021/04/15 07:23:00;;;;;;;12.05;4.80;;;;;;;;;;5073511;28;20230;-62
2021/04/15 07:25:34;;;;;;;17.20;6.85;;;;;;;;;;5074500;28;20195;-62
2021/04/15 07:28:16;;;;;;;5.63;4.65;;;;;;;;;;5077912;28;20269;-62
2021/04/15 07:30:54;;;;;;;5.32;4.57;;;;;;;;;;5075460;28;20198;-62
2021/04/15 07:33:27;;;;;;;8.77;5.25;;;;;;;;;;5076701;28;20193;-62
2021/04/15 07:36:01;;;;;;;8.45;4.60;;;;;;;;;;5076940;28;20261;-62
2021/04/15 07:38:45;;;;;;;5.70;5.15;;;;;;;;;;5077988;28;20298;-62
2021/04/15 07:41:21;;;;;;;8.65;5.05;;;;;;;;;;5078120;28;20308;-62
2021/04/15 07:43:59;;;;;;;8.02;4.82;;;;;;;;;;5076422;28;20255;-62
2021/04/15 07:46:29;;;;;;;9.77;5.25;;;;;;;;;;5075772;28;20263;-62
2021/04/15 07:49:11;;;;;;;5.88;4.55;;;;;;;;;;5076086;28;20255;-62
2021/04/15 07:51:47;;;;;;;7.75;5.05;;;;;;;;;;5076554;28;20189;-63
2021/04/15 07:54:37;;;;;;;6.68;4.15;;;;;;;;;;5075561;28;20624;-62
2021/04/15 07:57:23;;;;;;;11.55;5.13;;;;;;;;;;5076059;28;20273;-62
2021/04/15 08:00:06;;;;;;;7.22;4.82;;;;;;;;;;5075679;28;20220;-61
2021/04/15 08:02:41;;;;;;;7.95;5.15;;;;;;;;;;5075729;28;20193;-61
2021/04/15 08:05:18;;;;;;;9.85;5.10;;;;;;;;;;5075763;28;20297;-62
2021/04/15 08:08:18;;;;;;;11.88;4.55;;;;;;;;;;5075405;28;20182;-62
2021/04/15 08:10:52;;;;;;;4.60;4.07;;;;;;;;;;4994132;28;20560;-62
2021/04/15 08:13:31;;;;;;;12.32;5.55;;;;;;;;;;4993757;28;20201;-61
2021/04/15 08:16:16;;;;;;;6.82;4.15;;;;;;;;;;5041978;28;20633;-63
2021/04/15 08:18:49;;;;;;;13.70;5.80;;;;;;;;;;5075889;28;20221;-62
2021/04/15 08:21:26;;;;;;;8.35;3.95;;;;;;;;;;5075096;28;20267;-62
2021/04/15 08:24:23;;;;;;;4.88;3.83;;;;;;;;;;5075520;28;20207;-62
2021/04/15 08:27:10;;;;;;;8.68;4.80;;;;;;;;;;5075462;28;20239;-62
2021/04/15 08:29:45;;;;;;;8.57;4.00;;;;;;;;;;5075563;28;20214;-61
2021/04/15 08:32:18;;;;;;;8.98;3.65;;;;;;;;;;5074841;28;20188;-63
2021/04/15 08:34:50;;;;;;;6.05;4.50;;;;;;;;;;5074743;28;20230;-64
2021/04/15 08:37:27;;;;;;;7.82;4.25;;;;;;;;;;5075494;28;20197;-64
2021/04/15 08:40:00;;;;;;;8.57;4.63;;;;;;;;;;5074034;28;20182;-62
2021/04/15 08:42:33;;;;;;;5.75;4.53;;;;;;;;;;5075167;28;20640;-62
2021/04/15 08:45:14;;;;;;;7.68;4.57;;;;;;;;;;5074981;28;20206;-62
2021/04/15 08:47:56;;;;;;;5.63;5.13;;;;;;;;;;5074377;28;20186;-63
2021/04/15 08:50:29;;;;;;;5.97;4.32;;;;;;;;;;5073440;28;20194;-62
2021/04/15 08:52:59;;;;;;;6.28;4.30;;;;;;;;;;5074332;28;20229;-62
2021/04/15 08:55:33;;;;;;;5.88;3.95;;;;;;;;;;5075093;28;20192;-63
2021/04/15 08:58:03;;;;;;;5.30;4.80;;;;;;;;;;5075796;28;20178;-63
2021/04/15 09:00:35;;;;;;;6.00;4.40;;;;;;;;;;5074436;28;20184;-63
2021/04/15 09:03:09;;;;;;;10.55;5.72;;;;;;;;;;5074551;28;20648;-63
2021/04/15 09:05:56;;;;;;;7.25;5.25;;;;;;;;;;5074197;28;20182;-63
2021/04/15 09:08:25;;;;;;;5.93;5.22;;;;;;;;;;5075023;28;20301;-62
2021/04/15 09:10:59;;;;;;;9.60;6.32;;;;;;;;;;5074935;28;20568;-62
2021/04/15 09:13:30;;;;;;;6.57;5.63;;;;;;;;;;5073937;28;20204;-62
2021/04/15 09:16:07;;;;;;;9.90;6.53;;;;;;;;;;5073983;28;20192;-62
2021/04/15 09:18:36;;;;;;;6.03;5.50;;;;;;;;;;5074347;28;20265;-62
2021/04/15 09:21:11;;;;;;;7.10;5.82;;;;;;;;;;5074262;28;20197;-61
2021/04/15 09:23:47;;;;;;;5.30;4.90;;;;;;;;;;5074315;28;20244;-62
2021/04/15 09:26:19;;;;;;;7.28;5.07;;;;;;;;;;5073961;28;20635;-63
2021/04/15 09:28:53;;;;;;;6.80;5.20;;;;;;;;;;5073766;28;20217;-62
2021/04/15 09:31:25;;;;;;;6.65;5.78;;;;;;;;;;5074320;28;20209;-62
2021/04/15 09:34:10;;;;;;;10.80;5.47;;;;;;;;;;5074428;28;20543;-61
2021/04/15 09:36:45;;;;;;;7.68;4.65;;;;;;;;;;5074369;28;20221;-62
2021/04/15 09:39:19;;;;;;;5.45;4.30;;;;;;;;;;5074066;28;20217;-63
2021/04/15 09:42:06;;;;;;;4.68;4.22;;;;;;;;;;5074066;28;20701;-62
2021/04/15 09:44:41;;;;;;;6.03;4.15;;;;;;;;;;5048061;28;20267;-63
2021/04/15 09:47:14;;;;;;;6.65;3.75;;;;;;;;;;5073607;28;20187;-62
2021/04/15 09:49:45;;;;;;;4.13;3.15;;;;;;;;;;5073036;28;20231;-62
2021/04/15 09:52:24;;;;;;;12.73;5.90;;;;;;;;;;5073549;28;20265;-62
2021/04/15 09:55:00;;;;;;;4.80;3.40;;;;;;;;;;5073238;28;20187;-63
2021/04/15 09:57:37;;;;;;;4.97;4.05;;;;;;;;;;5073715;28;20215;-62
2021/04/15 10:00:10;;;;;;;5.30;4.53;;;;;;;;;;5073526;28;20194;-62
2021/04/15 10:02:43;;;;;;;8.00;4.50;;;;;;;;;;5073945;28;20196;-62
2021/04/15 10:05:11;;;;;;;23.15;7.10;;;;;;;;;;5073580;28;20212;-62
2021/04/15 10:07:42;;;;;;;3.95;3.55;;;;;;;;;;5073085;28;20194;-62
2021/04/15 10:10:18;;;;;;;9.18;3.60;;;;;;;;;;5073160;28;20191;-63
2021/04/15 10:12:53;;;;;;;5.68;3.80;;;;;;;;;;5074351;28;20299;-63
2021/04/15 10:15:40;;;;;;;4.45;3.88;;;;;;;;;;5073035;28;20183;-63
2021/04/15 10:18:12;;;;;;;13.75;9.32;;;;;;;;;;5073390;28;20634;-63
2021/04/15 10:20:44;;;;;;;8.88;6.00;;;;;;;;;;5073438;28;20185;-63
2021/04/15 10:23:19;;;;;;;10.55;4.30;;;;;;;;;;5072969;28;20696;-62
2021/04/15 10:25:47;;;;;;;8.23;4.10;;;;;;;;;;5073579;28;20265;-62
2021/04/15 10:28:29;;;;;;;6.45;4.18;;;;;;;;;;5072912;28;20239;-63
2021/04/15 10:31:05;;;;;;;5.07;3.95;;;;;;;;;;5073254;28;20188;-63
2021/04/15 10:33:50;;;;;;;5.22;4.13;;;;;;;;;;5073872;28;20271;-62
2021/04/15 10:36:37;;;;;;;6.05;3.70;;;;;;;;;;5072689;28;20199;-63
2021/04/15 10:39:17;;;;;;;6.78;6.18;;;;;;;;;;5073182;28;20264;-62
2021/04/15 10:42:11;;;;;;;5.93;4.05;;;;;;;;;;5073584;28;20284;-62
2021/04/15 10:45:04;;;;;;;5.95;4.35;;;;;;;;;;5037169;28;20224;-62
2021/04/15 10:47:37;;;;;;;4.90;3.70;;;;;;;;;;5072846;28;20181;-62
2021/04/15 10:50:10;;;;;;;6.63;3.88;;;;;;;;;;5072741;28;20271;-63
2021/04/15 10:52:44;;;;;;;3.50;3.20;;;;;;;;;;5072387;28;20303;-62
2021/04/15 10:55:19;;;;;;;6.88;3.50;;;;;;;;;;5073504;28;20208;-64
2021/04/15 10:57:46;;;;;;;4.97;3.25;;;;;;;;;;5072551;28;20187;-62
2021/04/15 11:00:21;;;;;;;9.75;6.70;;;;;;;;;;5072270;28;20201;-62
2021/04/15 11:02:49;;;;;;;4.15;3.70;;;;;;;;;;5075576;28;20735;-62
2021/04/15 11:05:18;;;;;;;7.10;4.38;;;;;;;;;;5076176;28;20217;-63
2021/04/15 11:07:45;;;;;;;3.00;2.70;;;;;;;;;;5076448;28;20604;-63
2021/04/15 11:10:18;;;;;;;14.15;4.75;;;;;;;;;;5076231;28;20241;-62
2021/04/15 11:12:46;;;;;;;14.38;3.53;;;;;;;;;;5076018;28;20656;-62
2021/04/15 11:15:17;;;;;;;6.55;3.40;;;;;;;;;;5076644;28;20232;-62
2021/04/15 11:17:45;;;;;;;4.97;4.38;;;;;;;;;;5076697;28;20196;-63
2021/04/15 11:20:26;;;;;;;4.15;3.22;;;;;;;;;;5076326;28;20243;-62
2021/04/15 11:22:55;;;;;;;5.45;3.53;;;;;;;;;;5073781;28;20205;-62
2021/04/15 11:25:24;;;;;;;7.93;4.67;;;;;;;;;;5075770;28;20729;-62
2021/04/15 11:27:52;;;;;;;6.78;4.63;;;;;;;;;;5076234;28;20456;-63
2021/04/15 11:30:29;;;;;;;9.18;3.70;;;;;;;;;;5075968;28;20287;-63
2021/04/15 11:32:56;;;;;;;4.78;3.00;;;;;;;;;;5076446;28;20657;-63
2021/04/15 11:35:23;;;;;;;3.15;2.95;;;;;;;;;;5076109;28;20207;-63
2021/04/15 11:37:51;;;;;;;4.82;2.92;;;;;;;;;;5075843;28;20203;-62
2021/04/15 11:40:22;;;;;;;4.05;3.00;;;;;;;;;;5076073;28;20203;-63
2021/04/15 11:42:49;;;;;;;5.03;3.40;;;;;;;;;;5076197;28;20285;-63
2021/04/15 11:45:28;;;;;;;4.05;3.17;;;;;;;;;;5075631;28;20220;-62
2021/04/15 11:48:09;;;;;;;3.78;3.45;;;;;;;;;;5076249;28;20237;-62
2021/04/15 11:50:36;;;;;;;6.85;3.40;;;;;;;;;;5076323;28;20276;-62
2021/04/15 11:53:23;;;;;;;3.88;3.58;;;;;;;;;;5075937;28;20267;-62
2021/04/15 11:55:49;;;;;;;5.53;3.85;;;;;;;;;;5075803;28;20188;-63
2021/04/15 11:58:30;;;;;;;5.47;3.70;;;;;;;;;;5075773;28;20205;-62
2021/04/15 12:01:00;;;;;;;4.10;3.80;;;;;;;;;;5075626;28;20642;-63
2021/04/15 12:03:28;;;;;;;4.55;3.42;;;;;;;;;;5075516;28;20245;-62
2021/04/15 12:05:59;;;;;;;4.35;3.78;;;;;;;;;;5076055;28;20553;-62
2021/04/15 12:08:27;;;;;;;10.80;3.97;;;;;;;;;;5075544;28;20192;-62
2021/04/15 12:10:57;;;;;;;3.80;3.33;;;;;;;;;;5075161;28;20197;-62
2021/04/15 12:13:25;;;;;;;3.03;2.80;;;;;;;;;;5074961;28;20193;-62
2021/04/15 12:15:54;;;;;;;5.20;3.47;;;;;;;;;;5075454;28;20471;-62
2021/04/15 12:18:26;;;;;;;4.25;3.42;;;;;;;;;;5075136;28;20456;-63
2021/04/15 12:20:57;;;;;;;5.13;3.57;;;;;;;;;;5075941;28;20272;-62
2021/04/15 12:23:28;;;;;;;4.25;3.85;;;;;;;;;;5075641;28;20540;-63
2021/04/15 12:25:57;;;;;;;6.50;3.80;;;;;;;;;;5075459;28;20192;-62
2021/04/15 12:28:27;;;;;;;4.68;3.35;;;;;;;;;;5075679;28;20452;-62
2021/04/15 12:30:59;;;;;;;3.90;3.60;;;;;;;;;;5075537;28;20220;-62
2021/04/15 12:33:31;;;;;;;3.85;3.45;;;;;;;;;;5075749;28;20427;-62
2021/04/15 12:35:59;;;;;;;4.72;3.10;;;;;;;;;;5075138;28;20245;-62
2021/04/15 12:38:27;;;;;;;4.32;2.90;;;;;;;;;;5075026;28;20246;-62
2021/04/15 12:40:56;;;;;;;3.08;2.75;;;;;;;;;;5074560;28;20283;-62
2021/04/15 12:43:27;;;;;;;5.78;3.35;;;;;;;;;;5074499;28;20508;-63
2021/04/15 12:45:55;;;;;;;3.88;3.15;;;;;;;;;;5076172;28;20521;-65
2021/04/15 12:48:26;;;;;;;4.85;2.95;;;;;;;;;;5075936;28;20317;-64
2021/04/15 12:50:53;;;;;;;6.38;3.58;;;;;;;;;;5075715;28;20638;-64
2021/04/15 12:53:20;;;;;;;4.68;3.13;;;;;;;;;;5075436;28;20292;-64
2021/04/15 12:55:50;;;;;;;4.40;3.38;;;;;;;;;;5074742;28;20286;-64
2021/04/15 12:58:17;;;;;;;7.50;3.43;;;;;;;;;;5075277;28;20286;-65
2021/04/15 13:00:46;;;;;;;5.15;2.90;;;;;;;;;;5075006;28;20437;-65
2021/04/15 13:03:23;;;;;;;6.20;3.20;;;;;;;;;;5074423;28;20242;-65
2021/04/15 13:05:56;;;;;;;4.00;3.40;;;;;;;;;;5069034;28;20218;-65
2021/04/15 13:08:26;;;;;;;4.90;3.10;;;;;;;;;;5062986;28;20480;-65
2021/04/15 13:10:53;;;;;;;5.23;3.00;;;;;;;;;;5054174;28;20437;-65
2021/04/15 13:13:36;;;;;;;6.43;3.20;;;;;;;;;;5053950;28;20489;-65
2021/04/15 13:16:03;;;;;;;4.10;3.80;;;;;;;;;;5054276;28;20422;-65
2021/04/15 13:18:41;;;;;;;4.70;4.30;;;;;;;;;;5054084;28;20876;-64
2021/04/15 13:21:25;;;;;;;3.30;3.00;;;;;;;;;;5054187;28;20440;-64
2021/04/15 13:23:52;;;;;;;4.63;3.47;;;;;;;;;;5053888;28;20460;-65
2021/04/15 13:26:33;;;;;;;8.30;2.97;;;;;;;;;;5053774;28;20444;-65
2021/04/15 13:29:02;;;;;;;6.00;3.67;;;;;;;;;;5054289;28;20519;-67
2021/04/15 13:31:36;;;;;;;4.03;3.63;;;;;;;;;;5054322;28;20197;-65
2021/04/15 13:34:07;;;;;;;4.80;3.10;;;;;;;;;;5053511;28;20454;-66
2021/04/15 13:36:35;;;;;;;3.23;2.83;;;;;;;;;;5053697;28;20536;-65
2021/04/15 13:39:27;;;;;;;3.20;2.90;;;;;;;;;;5053565;28;21008;-71
2021/04/15 13:42:16;;;;;;;4.33;3.90;;;;;;;;;;5053719;28;21009;-64
2021/04/15 13:45:04;;;;;;;9.90;3.10;;;;;;;;;;5036832;28;20488;-65
2021/04/15 13:47:58;;;;;;;3.07;2.83;;;;;;;;;;5036230;28;20486;-65
2021/04/15 13:50:43;;;;;;;3.28;2.97;;;;;;;;;;5053599;28;20783;-67
2021/04/15 13:53:37;;;;;;;3.80;3.27;;;;;;;;;;5053200;28;20193;-65
2021/04/15 13:56:06;;;;;;;5.03;2.83;;;;;;;;;;5029090;28;20529;-65
2021/04/15 13:58:34;;;;;;;6.33;3.97;;;;;;;;;;5053438;28;20449;-65
2021/04/15 14:01:01;;;;;;;4.37;3.00;;;;;;;;;;5053433;28;20444;-65
2021/04/15 14:03:42;;;;;;;3.77;3.23;;;;;;;;;;5053100;28;20449;-66
2021/04/15 14:06:10;;;;;;;3.30;3.00;;;;;;;;;;5053086;28;20476;-65
2021/04/15 14:08:40;;;;;;;4.87;3.23;;;;;;;;;;5053246;28;20476;-65
2021/04/15 14:11:25;;;;;;;3.60;3.30;;;;;;;;;;5053226;28;20460;-66
2021/04/15 14:13:53;;;;;;;5.80;3.47;;;;;;;;;;5053558;28;20506;-66
2021/04/15 14:16:20;;;;;;;2.70;2.50;;;;;;;;;;5052991;28;20466;-65
2021/04/15 14:18:47;;;;;;;2.63;2.40;;;;;;;;;;5052953;28;20444;-64
2021/04/15 14:21:17;;;;;;;6.40;3.17;;;;;;;;;;5052900;28;20441;-65
2021/04/15 14:23:45;;;;;;;5.60;3.43;;;;;;;;;;5053948;28;20472;-65
2021/04/15 14:26:13;;;;;;;5.17;3.00;;;;;;;;;;5052650;28;20967;-64
2021/04/15 14:28:41;;;;;;;3.67;3.07;;;;;;;;;;5053715;28;20442;-64
2021/04/15 14:31:17;;;;;;;3.43;3.13;;;;;;;;;;5052767;28;20495;-65
2021/04/15 14:33:44;;;;;;;3.97;3.67;;;;;;;;;;5053056;28;20441;-64
2021/04/15 14:36:20;;;;;;;5.07;3.13;;;;;;;;;;5053134;28;20486;-65
2021/04/15 14:38:47;;;;;;;3.93;3.30;;;;;;;;;;5057795;28;20452;-64
2021/04/15 14:41:13;;;;;;;4.93;3.47;;;;;;;;;;5057224;28;20774;-64
2021/04/15 14:43:41;;;;;;;5.13;3.53;;;;;;;;;;5057332;28;20872;-64
2021/04/15 14:46:13;;;;;;;8.07;3.50;;;;;;;;;;5057036;28;20444;-66
2021/04/15 14:48:41;;;;;;;4.72;2.95;;;;;;;;;;5056626;28;20406;-66
2021/04/15 14:51:11;;;;;;;4.70;4.17;;;;;;;;;;5056858;28;20297;-66
2021/04/15 14:53:38;;;;;;;3.35;3.15;;;;;;;;;;5056768;28;20444;-65
2021/04/15 14:56:10;;;;;;;3.55;3.00;;;;;;;;;;5056852;28;20226;-65
2021/04/15 14:58:38;;;;;;;4.20;3.10;;;;;;;;;;5056426;28;20195;-65
2021/04/15 15:01:06;;;;;;;2.70;2.50;;;;;;;;;;5056214;28;20602;-65
2021/04/15 15:03:34;;;;;;;3.77;2.87;;;;;;;;;;5056903;28;20513;-68
2021/04/15 15:06:02;;;;;;;11.83;8.60;;;;;;;;;;5055924;28;20481;-64
2021/04/15 15:08:30;;;;;;;8.23;4.60;;;;;;;;;;5056772;28;20437;-64